createdAt,value
2023-02-02T00:01:28.135Z,97463.69
2023-02-02T00:03:57.080Z,97457.31
2023-02-02T00:06:26.815Z,97461.56
2023-02-02T00:08:58.065Z,97454.00
2023-02-02T00:11:26.650Z,97464.59
2023-02-02T00:13:54.719Z,97453.31
2023-02-02T00:16:39.192Z,97457.41
2023-02-02T00:19:09.558Z,97447.50
2023-02-02T00:21:38.241Z,97455.97
2023-02-02T00:24:08.814Z,97459.28
2023-02-02T00:26:36.731Z,97451.81
2023-02-02T00:29:05.544Z,97451.81
2023-02-02T00:31:33.748Z,97440.53
2023-02-02T00:34:01.835Z,97447.38
2023-02-02T00:36:29.858Z,97442.25
2023-02-02T00:38:58.829Z,97443.72
2023-02-02T00:41:27.939Z,97451.84
2023-02-02T00:44:09.592Z,97446.69
2023-02-02T00:46:40.712Z,97434.84
2023-02-02T00:49:08.555Z,97447.00
2023-02-02T00:51:36.953Z,97429.16
2023-02-02T00:54:05.259Z,97435.63
2023-02-02T00:56:35.733Z,97436.47
2023-02-02T00:59:03.643Z,97432.22
2023-02-02T01:01:31.407Z,97449.78
2023-02-02T01:03:59.989Z,97429.97
2023-02-02T01:06:28.152Z,97449.28
2023-02-02T01:08:55.999Z,97450.47
2023-02-02T01:11:25.625Z,97454.81
2023-02-02T01:13:55.335Z,97441.25
2023-02-02T01:16:23.487Z,97442.22
2023-02-02T01:18:52.154Z,97447.88
2023-02-02T01:21:19.983Z,97451.53
2023-02-02T01:23:48.034Z,97468.03
2023-02-02T01:26:16.522Z,97475.56
2023-02-02T01:28:44.658Z,97475.19
2023-02-02T01:31:15.923Z,97478.34
2023-02-02T01:33:44.798Z,97473.41
2023-02-02T01:36:16.019Z,97488.97
2023-02-02T01:38:44.234Z,97485.31
2023-02-02T01:41:14.603Z,97468.81
2023-02-02T01:43:57.293Z,97469.81
2023-02-02T01:46:29.491Z,97474.56
2023-02-02T01:49:04.868Z,97476.06
2023-02-02T01:51:39.615Z,97485.22
2023-02-02T01:54:10.392Z,97480.72
2023-02-02T01:56:42.392Z,97475.59
2023-02-02T01:59:11.978Z,97473.13
2023-02-02T02:01:41.544Z,97478.38
2023-02-02T02:04:09.334Z,97474.41
2023-02-02T02:06:37.216Z,97480.16
2023-02-02T02:09:07.358Z,97478.38
2023-02-02T02:11:37.167Z,97486.97
2023-02-02T02:14:24.567Z,97483.19
2023-02-02T02:17:06.763Z,97488.66
2023-02-02T02:20:12.575Z,97495.44
2023-02-02T02:23:18.707Z,97494.91
2023-02-02T02:26:25.754Z,97474.59
2023-02-02T02:29:18.593Z,97493.09
2023-02-02T02:32:06.653Z,97504.25
2023-02-02T02:34:46.447Z,97506.97
2023-02-02T02:37:20.248Z,97511.63
2023-02-02T02:39:55.574Z,97508.66
2023-02-02T02:42:27.820Z,97509.56
2023-02-02T02:44:57.378Z,97502.50
2023-02-02T02:47:26.880Z,97484.28
2023-02-02T02:49:54.693Z,97487.13
2023-02-02T02:52:22.622Z,97480.53
2023-02-02T02:54:52.675Z,97483.31
2023-02-02T02:57:57.458Z,97487.31
2023-02-02T03:00:47.436Z,97465.13
2023-02-02T03:03:34.535Z,97482.34
2023-02-02T03:06:07.447Z,97481.00
2023-02-02T03:08:39.956Z,97489.25
2023-02-02T03:11:11.307Z,97486.94
2023-02-02T03:13:40.771Z,97482.97
2023-02-02T03:16:08.797Z,97492.56
2023-02-02T03:18:38.746Z,97493.88
2023-02-02T03:21:06.936Z,97487.63
2023-02-02T03:23:35.176Z,97484.31
2023-02-02T03:26:03.087Z,97497.03
2023-02-02T03:28:31.370Z,97497.03
2023-02-02T03:31:02.200Z,97501.84
2023-02-02T03:33:31.854Z,97495.72
2023-02-02T03:36:01.027Z,97509.28
2023-02-02T03:38:28.829Z,97484.81
2023-02-02T03:40:56.738Z,97490.59
2023-02-02T03:43:25.516Z,97500.19
2023-02-02T03:45:57.676Z,97489.25
2023-02-02T03:48:25.762Z,97508.47
2023-02-02T03:50:53.772Z,97506.47
2023-02-02T03:53:23.136Z,97498.56
2023-02-02T03:55:50.932Z,97491.59
2023-02-02T03:58:22.090Z,97494.22
2023-02-02T04:00:50.196Z,97504.66
2023-02-02T04:03:17.973Z,97510.13
2023-02-02T04:05:45.809Z,97491.25
2023-02-02T04:08:13.534Z,97493.25
2023-02-02T04:10:43.267Z,97488.78
2023-02-02T04:13:11.101Z,97482.66
2023-02-02T04:15:39.064Z,97500.50
2023-02-02T04:18:07.027Z,97495.25
2023-02-02T04:20:34.895Z,97499.34
2023-02-02T04:23:02.792Z,97502.16
2023-02-02T04:25:32.457Z,97487.13
2023-02-02T04:28:01.577Z,97501.66
2023-02-02T04:30:29.487Z,97508.13
2023-02-02T04:32:57.237Z,97509.75
2023-02-02T04:35:25.270Z,97505.81
2023-02-02T04:37:53.231Z,97505.81
2023-02-02T04:40:21.389Z,97507.28
2023-02-02T04:42:49.188Z,97506.66
2023-02-02T04:45:18.901Z,97497.88
2023-02-02T04:47:46.691Z,97510.44
2023-02-02T04:50:14.706Z,97505.16
2023-02-02T04:52:42.648Z,97514.56
2023-02-02T04:55:10.682Z,97518.53
2023-02-02T04:57:38.551Z,97515.38
2023-02-02T05:00:07.525Z,97509.44
2023-02-02T05:02:38.415Z,97507.13
2023-02-02T05:05:08.049Z,97513.56
2023-02-02T05:07:35.919Z,97502.00
2023-02-02T05:10:03.738Z,97493.53
2023-02-02T05:12:31.787Z,97499.53
2023-02-02T05:15:00.996Z,97506.78
2023-02-02T05:17:29.079Z,97496.22
2023-02-02T05:19:58.582Z,97513.41
2023-02-02T05:22:27.027Z,97506.78
2023-02-02T05:24:54.898Z,97489.59
2023-02-02T05:27:23.255Z,97515.38
2023-02-02T05:29:51.077Z,97510.44
2023-02-02T05:32:18.850Z,97497.19
2023-02-02T05:34:46.722Z,97439.19
2023-02-02T05:37:16.032Z,97431.09
2023-02-02T05:39:44.039Z,97488.75
2023-02-02T05:42:11.879Z,97487.59
2023-02-02T05:44:39.664Z,97492.38
2023-02-02T05:47:07.456Z,97487.91
2023-02-02T05:49:35.207Z,97499.50
2023-02-02T05:52:03.002Z,97507.94
2023-02-02T05:54:32.248Z,97504.13
2023-02-02T05:57:01.284Z,97508.75
2023-02-02T05:59:29.304Z,97497.84
2023-02-02T06:01:57.110Z,97497.19
2023-02-02T06:04:24.973Z,97495.66
2023-02-02T06:06:52.729Z,97508.44
2023-02-02T06:09:20.559Z,97498.81
2023-02-02T06:11:49.759Z,97503.44
2023-02-02T06:14:17.612Z,97510.91
2023-02-02T06:16:45.678Z,97513.72
2023-02-02T06:19:13.522Z,97507.25
2023-02-02T06:21:41.357Z,97509.06
2023-02-02T06:24:09.224Z,97512.69
2023-02-02T06:26:37.511Z,97501.78
2023-02-02T06:29:07.862Z,97498.78
2023-02-02T06:31:35.662Z,97504.13
2023-02-02T06:34:03.549Z,97518.66
2023-02-02T06:36:31.297Z,97501.31
2023-02-02T06:38:59.579Z,97528.91
2023-02-02T06:41:27.556Z,97533.03
2023-02-02T06:43:55.524Z,97492.88
2023-02-02T06:46:24.701Z,97526.91
2023-02-02T06:48:52.559Z,97522.78
2023-02-02T06:51:20.491Z,97531.88
2023-02-02T06:53:49.948Z,97531.22
2023-02-02T06:56:18.243Z,97529.41
2023-02-02T06:58:46.238Z,97526.72
2023-02-02T07:01:15.416Z,97516.47
2023-02-02T07:03:44.625Z,97522.94
2023-02-02T07:06:17.486Z,97537.50
2023-02-02T07:08:45.688Z,97540.97
2023-02-02T07:11:22.472Z,97527.88
2023-02-02T07:13:51.430Z,97544.94
2023-02-02T07:16:19.950Z,97540.75
2023-02-02T07:18:49.469Z,97539.28
2023-02-02T07:21:19.793Z,97543.72
2023-02-02T07:23:47.927Z,97532.31
2023-02-02T07:26:16.901Z,97533.50
2023-02-02T07:28:45.562Z,97540.44
2023-02-02T07:31:14.811Z,97538.16
2023-02-02T07:33:43.493Z,97533.34
2023-02-02T07:36:13.289Z,97534.78
2023-02-02T07:38:41.176Z,97537.75
2023-02-02T07:41:09.364Z,97540.34
2023-02-02T07:43:37.673Z,97530.41
2023-02-02T07:46:08.326Z,97543.84
2023-02-02T07:48:36.391Z,97551.75
2023-02-02T07:51:06.464Z,97548.97
2023-02-02T07:53:36.176Z,97557.41
2023-02-02T07:56:09.188Z,97559.81
2023-02-02T07:58:37.341Z,97551.41
2023-02-02T08:01:06.536Z,97548.28
2023-02-02T08:03:34.469Z,97554.22
2023-02-02T08:06:09.266Z,97561.09
2023-02-02T08:08:38.451Z,97560.09
2023-02-02T08:11:06.532Z,97572.00
2023-02-02T08:13:34.482Z,97570.75
2023-02-02T08:16:02.291Z,97574.69
2023-02-02T08:18:30.070Z,97570.00
2023-02-02T08:20:59.806Z,97559.53
2023-02-02T08:23:28.004Z,97546.09
2023-02-02T08:26:07.141Z,97565.09
2023-02-02T08:28:35.403Z,97569.19
2023-02-02T08:31:06.925Z,97559.38
2023-02-02T08:33:35.077Z,97564.28
2023-02-02T08:36:03.188Z,97563.41
2023-02-02T08:38:31.344Z,97549.88
2023-02-02T08:41:06.993Z,97575.00
2023-02-02T08:43:34.864Z,97579.81
2023-02-02T08:46:05.481Z,97572.31
2023-02-02T08:48:35.152Z,97574.44
2023-02-02T08:51:04.058Z,97586.59
2023-02-02T08:53:32.346Z,97577.75
2023-02-02T08:56:01.870Z,97584.97
2023-02-02T08:58:31.790Z,97581.81
2023-02-02T09:01:06.306Z,97583.44
2023-02-02T09:03:34.076Z,97573.03
2023-02-02T09:06:06.272Z,97568.09
2023-02-02T09:08:34.634Z,97573.91
2023-02-02T09:11:07.441Z,97563.16
2023-02-02T09:13:37.267Z,97566.88
2023-02-02T09:16:07.849Z,97567.75
2023-02-02T09:18:35.906Z,97557.88
2023-02-02T09:21:05.545Z,97566.72
2023-02-02T09:23:34.256Z,97570.81
2023-02-02T09:26:10.688Z,97574.44
2023-02-02T09:28:40.507Z,97583.69
2023-02-02T09:31:09.025Z,97574.34
2023-02-02T09:33:37.367Z,97568.63
2023-02-02T09:36:07.050Z,97574.25
2023-02-02T09:38:36.334Z,97568.63
2023-02-02T09:41:22.607Z,97569.09
2023-02-02T09:43:58.278Z,97573.50
2023-02-02T09:46:38.074Z,97567.28
2023-02-02T09:49:10.831Z,97567.72
2023-02-02T09:51:42.334Z,97601.56
2023-02-02T09:54:17.116Z,97610.03
2023-02-02T09:56:50.748Z,97607.94
2023-02-02T09:59:24.402Z,97615.50
2023-02-02T10:01:56.854Z,97623.88
2023-02-02T10:04:29.067Z,97620.94
2023-02-02T10:07:00.205Z,97633.59
2023-02-02T10:09:35.298Z,97643.13
2023-02-02T10:12:13.738Z,97640.97
2023-02-02T10:14:48.417Z,97644.81
2023-02-02T10:17:33.396Z,97645.72
2023-02-02T10:20:10.484Z,97652.44
2023-02-02T10:22:38.287Z,97636.00
2023-02-02T10:25:07.259Z,97651.53
2023-02-02T10:27:39.895Z,97661.09
2023-02-02T10:30:18.871Z,97669.06
2023-02-02T10:32:51.309Z,97658.78
2023-02-02T10:35:34.294Z,97650.28
2023-02-02T10:38:10.492Z,97657.25
2023-02-02T10:40:47.550Z,97666.97
2023-02-02T10:43:47.168Z,97654.41
2023-02-02T10:46:23.429Z,97662.41
2023-02-02T10:49:01.666Z,97652.31
2023-02-02T10:51:30.486Z,97655.44
2023-02-02T10:54:01.144Z,97669.81
2023-02-02T10:56:36.670Z,97673.50
2023-02-02T10:59:08.319Z,97657.34
2023-02-02T11:01:37.574Z,97664.53
2023-02-02T11:04:23.034Z,97659.16
2023-02-02T11:06:51.069Z,97661.00
2023-02-02T11:09:22.452Z,97627.78
2023-02-02T11:11:54.518Z,97642.09
2023-02-02T11:14:33.678Z,97633.63
2023-02-02T11:17:06.137Z,97636.34
2023-02-02T11:19:35.401Z,97624.47
2023-02-02T11:22:04.289Z,97630.66
2023-02-02T11:24:36.840Z,97622.50
2023-02-02T11:27:08.113Z,97625.19
2023-02-02T11:29:43.535Z,97613.16
2023-02-02T11:32:28.466Z,97606.75
2023-02-02T11:35:19.216Z,97605.50
2023-02-02T11:37:58.781Z,97623.66
2023-02-02T11:40:37.050Z,97621.69
2023-02-02T11:43:08.399Z,97619.44
2023-02-02T11:45:39.219Z,97629.47
2023-02-02T11:48:17.017Z,97635.34
2023-02-02T11:50:49.618Z,97631.66
2023-02-02T11:53:25.465Z,97641.09
2023-02-02T11:55:53.705Z,97627.00
2023-02-02T11:58:27.648Z,97628.63
2023-02-02T12:01:01.240Z,97616.66
2023-02-02T12:03:36.132Z,97637.56
2023-02-02T12:06:20.215Z,97621.13
2023-02-02T12:08:48.750Z,97620.03
2023-02-02T12:11:35.546Z,97614.94
2023-02-02T12:14:19.519Z,97589.84
2023-02-02T12:16:59.227Z,97602.16
2023-02-02T12:19:53.020Z,97583.59
2023-02-02T12:22:35.296Z,97594.28
2023-02-02T12:25:10.432Z,97594.91
2023-02-02T12:27:46.419Z,97594.16
2023-02-02T12:30:30.912Z,97596.53
2023-02-02T12:33:24.860Z,97584.97
2023-02-02T12:36:07.243Z,97590.81
2023-02-02T12:38:58.465Z,97579.16
2023-02-02T12:41:38.989Z,97567.34
2023-02-02T12:44:17.113Z,97588.28
2023-02-02T12:47:00.667Z,97595.03
2023-02-02T12:49:41.724Z,97601.25
2023-02-02T12:52:34.816Z,97599.34
2023-02-02T12:55:16.381Z,97595.03
2023-02-02T12:57:54.217Z,97584.06
2023-02-02T13:00:38.364Z,97586.91
2023-02-02T13:03:28.856Z,97590.53
2023-02-02T13:06:11.555Z,97589.72
2023-02-02T13:08:46.880Z,97592.19
2023-02-02T13:11:30.830Z,97593.91
2023-02-02T13:14:01.225Z,97592.97
2023-02-02T13:16:32.636Z,97589.06
2023-02-02T13:19:05.643Z,97587.88
2023-02-02T13:21:33.931Z,97580.78
2023-02-02T13:24:07.848Z,97591.03
2023-02-02T13:26:39.512Z,97594.41
2023-02-02T13:29:12.867Z,97577.72
2023-02-02T13:31:46.534Z,97571.22
2023-02-02T13:34:22.060Z,97570.97
2023-02-02T13:36:55.795Z,97585.19
2023-02-02T13:39:34.643Z,97590.78
2023-02-02T13:42:03.386Z,97584.78
2023-02-02T13:44:36.698Z,97597.88
2023-02-02T13:47:10.903Z,97568.31
2023-02-02T13:49:42.893Z,97582.31
2023-02-02T13:52:26.436Z,97583.78
2023-02-02T13:55:21.874Z,97586.13
2023-02-02T13:58:17.307Z,97600.53
2023-02-02T14:00:49.620Z,97595.44
2023-02-02T14:03:32.218Z,97584.59
2023-02-02T14:06:06.900Z,97610.06
2023-02-02T14:08:35.596Z,97605.50
2023-02-02T14:11:06.751Z,97614.00
2023-02-02T14:14:04.676Z,97606.00
2023-02-02T14:16:48.674Z,97616.03
2023-02-02T14:19:18.017Z,97607.22
2023-02-02T14:22:17.921Z,97621.00
2023-02-02T14:24:48.888Z,97616.72
2023-02-02T14:28:02.393Z,97628.97
2023-02-02T14:30:35.046Z,97620.66
2023-02-02T14:33:38.209Z,97630.09
2023-02-02T14:36:11.192Z,97632.75
2023-02-02T14:39:09.015Z,97625.34
2023-02-02T14:42:18.065Z,97625.31
2023-02-02T14:45:16.894Z,97634.94
2023-02-02T14:47:51.458Z,97643.19
2023-02-02T14:50:25.430Z,97652.94
2023-02-02T14:53:04.695Z,97657.50
2023-02-02T14:55:32.573Z,97667.06
2023-02-02T14:58:02.781Z,97661.00
2023-02-02T15:00:34.017Z,97663.03
2023-02-02T15:03:36.056Z,97668.81
2023-02-02T15:06:08.767Z,97670.00
2023-02-02T15:08:36.868Z,97673.03
2023-02-02T15:11:27.701Z,97687.47
2023-02-02T15:14:14.513Z,97679.47
2023-02-02T15:16:44.271Z,97687.63
2023-02-02T15:19:24.167Z,97682.94
2023-02-02T15:21:55.385Z,97690.28
2023-02-02T15:24:28.302Z,97699.41
2023-02-02T15:26:59.980Z,97703.44
2023-02-02T15:29:36.349Z,97692.69
2023-02-02T15:32:06.897Z,97707.16
2023-02-02T15:34:41.987Z,97702.97
2023-02-02T15:37:15.948Z,97708.75
2023-02-02T15:39:48.956Z,97707.84
2023-02-02T15:42:36.888Z,97711.94
2023-02-02T15:45:05.242Z,97702.31
2023-02-02T15:47:37.133Z,97712.88
2023-02-02T15:50:18.397Z,97724.88
2023-02-02T15:52:50.068Z,97726.53
2023-02-02T15:55:22.777Z,97726.53
2023-02-02T15:57:54.101Z,97720.66
2023-02-02T16:00:28.027Z,97717.81
2023-02-02T16:03:01.735Z,97719.09
2023-02-02T16:05:46.241Z,97709.66
2023-02-02T16:08:19.176Z,97710.91
2023-02-02T16:10:49.379Z,97709.28
2023-02-02T16:13:24.901Z,97712.03
2023-02-02T16:15:57.233Z,97719.91
2023-02-02T16:18:25.222Z,97722.66
2023-02-02T16:20:55.614Z,97709.72
2023-02-02T16:23:27.879Z,97710.47
2023-02-02T16:25:59.609Z,97714.31
2023-02-02T16:28:28.270Z,97713.31
2023-02-02T16:30:59.796Z,97727.53
2023-02-02T16:33:29.840Z,97734.03
2023-02-02T16:35:59.086Z,97742.03
2023-02-02T16:38:31.666Z,97758.91
2023-02-02T16:41:07.463Z,97767.22
2023-02-02T16:43:37.950Z,97773.50
2023-02-02T16:46:08.855Z,97769.53
2023-02-02T16:48:38.449Z,97772.09
2023-02-02T16:51:13.184Z,97779.53
2023-02-02T16:53:41.041Z,97769.88
2023-02-02T16:56:11.091Z,97768.06
2023-02-02T16:58:45.200Z,97764.78
2023-02-02T17:01:16.255Z,97764.78
2023-02-02T17:03:52.604Z,97761.09
2023-02-02T17:06:38.685Z,97771.75
2023-02-02T17:09:33.209Z,97774.22
2023-02-02T17:12:04.771Z,97725.53
2023-02-02T17:14:35.652Z,97759.78
2023-02-02T17:17:06.146Z,97769.13
2023-02-02T17:19:34.535Z,97775.28
2023-02-02T17:22:06.280Z,97792.19
2023-02-02T17:24:34.276Z,97790.69
2023-02-02T17:27:02.968Z,97790.91
2023-02-02T17:29:30.747Z,97793.06
2023-02-02T17:31:58.560Z,97805.00
2023-02-02T17:34:26.370Z,97804.84
2023-02-02T17:36:55.143Z,97811.19
2023-02-02T17:39:24.340Z,97806.88
2023-02-02T17:41:52.556Z,97816.59
2023-02-02T17:44:20.371Z,97813.94
2023-02-02T17:46:48.153Z,97815.31
2023-02-02T17:49:15.957Z,97821.59
2023-02-02T17:51:43.783Z,97815.81
2023-02-02T17:54:13.181Z,97825.28
2023-02-02T17:56:43.331Z,97825.66
2023-02-02T17:59:12.251Z,97816.53
2023-02-02T18:01:41.889Z,97817.38
2023-02-02T18:04:14.092Z,97814.63
2023-02-02T18:06:41.643Z,97815.47
2023-02-02T18:09:10.501Z,97814.34
2023-02-02T18:11:39.915Z,97812.53
2023-02-02T18:14:10.544Z,97797.34
2023-02-02T18:16:38.416Z,97802.00
2023-02-02T18:19:06.181Z,97818.91
2023-02-02T18:21:33.959Z,97813.59
2023-02-02T18:24:01.979Z,97809.09
2023-02-02T18:26:31.339Z,97810.94
2023-02-02T18:28:59.839Z,97772.25
2023-02-02T18:31:29.069Z,97813.88
2023-02-02T18:33:57.143Z,97820.28
2023-02-02T18:36:25.063Z,97826.25
2023-02-02T18:38:53.923Z,97823.28
2023-02-02T18:41:22.599Z,97823.28
2023-02-02T18:43:52.867Z,97836.25
2023-02-02T18:46:21.033Z,97826.66
2023-02-02T18:48:50.354Z,97817.03
2023-02-02T18:51:19.541Z,97807.44
2023-02-02T18:53:48.272Z,97817.50
2023-02-02T18:56:17.286Z,97820.66
2023-02-02T18:58:45.302Z,97814.88
2023-02-02T19:01:15.731Z,97793.84
2023-02-02T19:03:44.174Z,97795.63
2023-02-02T19:06:30.512Z,97813.22
2023-02-02T19:08:58.348Z,97808.09
2023-02-02T19:11:29.540Z,97809.09
2023-02-02T19:13:57.687Z,97817.38
2023-02-02T19:16:27.171Z,97808.69
2023-02-02T19:18:57.036Z,97795.81
2023-02-02T19:21:30.925Z,97804.03
2023-02-02T19:24:00.736Z,97801.41
2023-02-02T19:26:30.369Z,97815.00
2023-02-02T19:29:06.932Z,97810.88
2023-02-02T19:31:34.746Z,97818.56
2023-02-02T19:34:03.655Z,97825.81
2023-02-02T19:36:32.774Z,97822.22
2023-02-02T19:39:11.987Z,97815.59
2023-02-02T19:41:42.404Z,97824.22
2023-02-02T19:44:16.314Z,97814.63
2023-02-02T19:46:46.912Z,97815.88
2023-02-02T19:49:19.139Z,97820.75
2023-02-02T19:51:53.625Z,97821.38
2023-02-02T19:54:30.471Z,97825.72
2023-02-02T19:57:00.538Z,97817.06
2023-02-02T19:59:35.370Z,97837.00
2023-02-02T20:02:26.677Z,97834.03
2023-02-02T20:05:00.603Z,97839.69
2023-02-02T20:07:30.240Z,97828.72
2023-02-02T20:10:11.284Z,97823.72
2023-02-02T20:12:39.515Z,97824.75
2023-02-02T20:15:25.514Z,97829.06
2023-02-02T20:17:55.978Z,97845.38
2023-02-02T20:20:27.445Z,97857.00
2023-02-02T20:22:58.377Z,97868.50
2023-02-02T20:25:26.256Z,97875.69
2023-02-02T20:27:55.006Z,97883.28
2023-02-02T20:30:26.724Z,97883.63
2023-02-02T20:32:58.035Z,97877.13
2023-02-02T20:35:34.302Z,97883.28
2023-02-02T20:38:13.211Z,97881.97
2023-02-02T20:40:40.966Z,97885.63
2023-02-02T20:43:08.957Z,97882.28
2023-02-02T20:45:36.770Z,97880.31
2023-02-02T20:48:04.607Z,97868.91
2023-02-02T20:50:32.612Z,97871.00
2023-02-02T20:53:00.391Z,97869.69
2023-02-02T20:55:29.521Z,97866.00
2023-02-02T20:57:57.312Z,97863.69
2023-02-02T21:00:27.672Z,97867.56
2023-02-02T21:02:56.344Z,97875.88
2023-02-02T21:05:24.272Z,97885.66
2023-02-02T21:07:54.914Z,97884.56
2023-02-02T21:10:23.458Z,97881.09
2023-02-02T21:12:52.848Z,97884.38
2023-02-02T21:15:20.606Z,97882.25
2023-02-02T21:17:48.464Z,97894.69
2023-02-02T21:20:16.542Z,97905.47
2023-02-02T21:22:44.285Z,97907.97
2023-02-02T21:25:12.464Z,97908.81
2023-02-02T21:27:41.187Z,97913.81
2023-02-02T21:30:14.010Z,97922.59
2023-02-02T21:32:41.881Z,97919.28
2023-02-02T21:35:10.503Z,97900.38
2023-02-02T21:37:38.483Z,97913.00
2023-02-02T21:40:14.529Z,97912.16
2023-02-02T21:42:50.176Z,97919.59
2023-02-02T21:45:34.628Z,97904.69
2023-02-02T21:48:04.182Z,97905.03
2023-02-02T21:50:35.084Z,97911.53
2023-02-02T21:53:18.921Z,97911.38
2023-02-02T21:55:48.450Z,97919.66
2023-02-02T21:58:21.884Z,97904.03
2023-02-02T22:00:51.683Z,97885.00
2023-02-02T22:03:33.743Z,97916.69
2023-02-02T22:06:16.961Z,97917.63
2023-02-02T22:08:44.774Z,97920.34
2023-02-02T22:11:31.808Z,97920.50
2023-02-02T22:14:03.759Z,97899.75
2023-02-02T22:16:42.296Z,97914.03
2023-02-02T22:19:24.980Z,97901.66
2023-02-02T22:21:53.971Z,97889.47
2023-02-02T22:24:22.055Z,97899.94
2023-02-02T22:26:50.119Z,97896.81
2023-02-02T22:29:21.302Z,97913.22
2023-02-02T22:31:50.517Z,97886.88
2023-02-02T22:34:18.310Z,97912.38
2023-02-02T22:36:46.046Z,97916.41
2023-02-02T22:39:13.934Z,97917.72
2023-02-02T22:41:41.658Z,97925.69
2023-02-02T22:44:09.431Z,97926.38
2023-02-02T22:46:37.248Z,97924.72
2023-02-02T22:49:06.393Z,97922.72
2023-02-02T22:51:34.145Z,97926.88
2023-02-02T22:54:01.900Z,97922.38
2023-02-02T22:56:29.808Z,97934.97
2023-02-02T22:58:57.566Z,97925.00
2023-02-02T23:01:25.399Z,97927.97
2023-02-02T23:03:53.283Z,97937.53
2023-02-02T23:06:22.378Z,97927.59
2023-02-02T23:08:50.151Z,97930.78
2023-02-02T23:11:18.060Z,97947.88
2023-02-02T23:13:45.959Z,97951.84
2023-02-02T23:16:17.248Z,97944.91
2023-02-02T23:18:45.040Z,97949.06
2023-02-02T23:21:12.760Z,97948.22
2023-02-02T23:23:42.483Z,97939.09
2023-02-02T23:26:10.406Z,97938.13
2023-02-02T23:28:38.159Z,97923.53
2023-02-02T23:31:06.335Z,97936.28
2023-02-02T23:33:34.252Z,97930.16
2023-02-02T23:36:02.017Z,97928.34
2023-02-02T23:38:29.801Z,97921.72
2023-02-02T23:41:00.254Z,97912.94
2023-02-02T23:43:28.109Z,97909.13
2023-02-02T23:45:56.078Z,97925.34
2023-02-02T23:48:23.847Z,97928.00
2023-02-02T23:50:51.941Z,97925.63
2023-02-02T23:53:20.294Z,97913.22
2023-02-02T23:55:48.089Z,97920.94
2023-02-02T23:58:17.330Z,97908.03
